Time;durP1;ratioP1;P1;durP2;ratioP2;P2;SDS_P1;SDS_P2;PMS_P1;PMS_P2;Temp;Humidity;BMP_temperature;BMP_pressure;BME280_temperature;BME280_humidity;BME280_pressure;Samples;Min_cycle;Max_cycle;Signal;HPM_P1;HPM_P2
2022/08/04 00:02:16;;;;;;;3.38;3.05;;;;;;;;;;5076831;28;20597;-65
2022/08/04 00:04:46;;;;;;;2.85;2.60;;;;;;;;;;5076978;28;20228;-66
2022/08/04 00:07:17;;;;;;;3.35;3.03;;;;;;;;;;5076207;28;20204;-65
2022/08/04 00:09:48;;;;;;;3.22;2.92;;;;;;;;;;5076489;28;20204;-66
2022/08/04 00:12:16;;;;;;;2.88;2.67;;;;;;;;;;5076525;28;20265;-65
2022/08/04 00:14:48;;;;;;;3.70;3.40;;;;;;;;;;5076862;28;20277;-65
2022/08/04 00:17:15;;;;;;;3.22;3.03;;;;;;;;;;5076686;28;20573;-65
2022/08/04 00:19:45;;;;;;;2.97;2.78;;;;;;;;;;5076788;28;20617;-65
2022/08/04 00:22:14;;;;;;;3.20;2.97;;;;;;;;;;5076649;28;20556;-65
2022/08/04 00:24:43;;;;;;;3.50;3.20;;;;;;;;;;5077048;28;20329;-66
2022/08/04 00:27:11;;;;;;;3.28;3.00;;;;;;;;;;5076631;28;20209;-65
2022/08/04 00:29:39;;;;;;;2.83;2.45;;;;;;;;;;5076742;28;20543;-65
2022/08/04 00:32:07;;;;;;;3.53;3.22;;;;;;;;;;5076778;28;20205;-66
2022/08/04 00:34:37;;;;;;;3.10;2.90;;;;;;;;;;5079018;28;20223;-65
2022/08/04 00:37:05;;;;;;;3.38;3.13;;;;;;;;;;5080063;28;20236;-66
2022/08/04 00:39:34;;;;;;;3.45;3.25;;;;;;;;;;5080200;28;20205;-65
2022/08/04 00:42:14;;;;;;;3.15;2.95;;;;;;;;;;5080355;28;20270;-65
2022/08/04 00:44:45;;;;;;;3.35;2.78;;;;;;;;;;5079973;28;20273;-65
2022/08/04 00:47:21;;;;;;;3.00;2.80;;;;;;;;;;5079803;28;20708;-65
2022/08/04 00:50:03;;;;;;;3.13;2.92;;;;;;;;;;5079804;28;20208;-65
2022/08/04 00:52:34;;;;;;;3.47;3.17;;;;;;;;;;5080081;28;20204;-66
2022/08/04 00:55:11;;;;;;;3.20;3.00;;;;;;;;;;5079841;28;20424;-65
2022/08/04 00:57:51;;;;;;;3.03;2.80;;;;;;;;;;5079912;28;20232;-65
2022/08/04 01:00:20;;;;;;;2.70;2.60;;;;;;;;;;5079705;28;20647;-65
2022/08/04 01:02:52;;;;;;;3.00;2.80;;;;;;;;;;5079867;28;20219;-65
2022/08/04 01:05:22;;;;;;;3.17;2.97;;;;;;;;;;5080027;28;20219;-65
2022/08/04 01:07:54;;;;;;;3.30;3.03;;;;;;;;;;5079887;28;20204;-65
2022/08/04 01:10:24;;;;;;;3.85;2.90;;;;;;;;;;5079671;28;20662;-66
2022/08/04 01:13:07;;;;;;;3.50;3.20;;;;;;;;;;5079636;28;20269;-65
2022/08/04 01:15:39;;;;;;;3.30;3.10;;;;;;;;;;5079494;28;20210;-65
2022/08/04 01:18:07;;;;;;;3.25;2.95;;;;;;;;;;5079492;28;20658;-65
2022/08/04 01:20:35;;;;;;;3.40;3.10;;;;;;;;;;5079628;28;20211;-65
2022/08/04 01:23:18;;;;;;;3.13;2.92;;;;;;;;;;5079497;28;20219;-65
2022/08/04 01:25:54;;;;;;;3.10;2.90;;;;;;;;;;5079620;28;20277;-65
2022/08/04 01:28:29;;;;;;;3.50;3.00;;;;;;;;;;5078971;28;20589;-65
2022/08/04 01:31:02;;;;;;;3.33;3.13;;;;;;;;;;5079510;28;20690;-65
2022/08/04 01:33:30;;;;;;;3.13;2.92;;;;;;;;;;5078955;28;20224;-65
2022/08/04 01:36:02;;;;;;;3.38;2.83;;;;;;;;;;5079010;28;20212;-65
2022/08/04 01:38:30;;;;;;;3.28;3.05;;;;;;;;;;5079602;28;20205;-66
2022/08/04 01:41:00;;;;;;;3.17;2.97;;;;;;;;;;5078884;28;20205;-65
2022/08/04 01:43:28;;;;;;;3.58;3.08;;;;;;;;;;5078825;28;20282;-65
2022/08/04 01:45:58;;;;;;;3.10;2.90;;;;;;;;;;5077734;28;20204;-67
2022/08/04 01:48:27;;;;;;;3.22;3.03;;;;;;;;;;5078728;28;20285;-65
2022/08/04 01:50:55;;;;;;;3.15;2.88;;;;;;;;;;5078702;28;20493;-65
2022/08/04 01:53:22;;;;;;;3.10;2.90;;;;;;;;;;5078909;28;20224;-65
2022/08/04 01:55:50;;;;;;;3.10;2.90;;;;;;;;;;5079003;28;20204;-66
2022/08/04 01:58:19;;;;;;;3.40;3.20;;;;;;;;;;5078669;28;20262;-65
2022/08/04 02:00:51;;;;;;;3.13;2.92;;;;;;;;;;5078641;28;20265;-65
2022/08/04 02:03:18;;;;;;;3.13;2.92;;;;;;;;;;5078867;28;20261;-65
2022/08/04 02:05:48;;;;;;;3.17;2.97;;;;;;;;;;5079177;28;20255;-65
2022/08/04 02:08:20;;;;;;;3.40;3.20;;;;;;;;;;5078655;28;20204;-66
2022/08/04 02:10:54;;;;;;;3.50;3.20;;;;;;;;;;5078617;28;20211;-65
2022/08/04 02:13:24;;;;;;;3.17;2.90;;;;;;;;;;5078644;28;20329;-65
2022/08/04 02:15:56;;;;;;;3.22;3.03;;;;;;;;;;5078302;28;20295;-65
2022/08/04 02:18:24;;;;;;;3.13;2.83;;;;;;;;;;5078330;28;20230;-66
2022/08/04 02:20:56;;;;;;;3.45;3.15;;;;;;;;;;5078170;28;20216;-65
2022/08/04 02:23:29;;;;;;;3.10;2.90;;;;;;;;;;5078025;28;20262;-65
2022/08/04 02:25:57;;;;;;;3.33;3.03;;;;;;;;;;5078658;28;20481;-65
2022/08/04 02:28:29;;;;;;;3.28;2.97;;;;;;;;;;5078421;28;20211;-65
2022/08/04 02:31:04;;;;;;;3.38;3.17;;;;;;;;;;5078317;28;20286;-65
2022/08/04 02:33:36;;;;;;;2.92;2.72;;;;;;;;;;5078001;28;20550;-65
2022/08/04 02:36:06;;;;;;;3.25;3.05;;;;;;;;;;5078016;28;20212;-65
2022/08/04 02:38:48;;;;;;;3.40;3.10;;;;;;;;;;5077722;28;20662;-65
2022/08/04 02:41:16;;;;;;;3.50;3.20;;;;;;;;;;5075045;28;20231;-65
2022/08/04 02:43:44;;;;;;;3.60;3.30;;;;;;;;;;5077974;28;20573;-65
2022/08/04 02:46:12;;;;;;;3.38;3.10;;;;;;;;;;5077804;28;20216;-66
2022/08/04 02:48:41;;;;;;;3.25;3.00;;;;;;;;;;5077673;28;20211;-65
2022/08/04 02:51:11;;;;;;;3.40;3.10;;;;;;;;;;5077457;28;20266;-65
2022/08/04 02:53:39;;;;;;;2.95;2.78;;;;;;;;;;5078047;28;20216;-65
2022/08/04 02:56:07;;;;;;;3.38;3.17;;;;;;;;;;5077104;28;20212;-65
2022/08/04 02:58:35;;;;;;;3.00;2.80;;;;;;;;;;5077345;28;20538;-65
2022/08/04 03:01:03;;;;;;;3.42;3.20;;;;;;;;;;5077528;28;20337;-65
2022/08/04 03:03:35;;;;;;;3.25;2.95;;;;;;;;;;5077583;28;20716;-65
2022/08/04 03:06:20;;;;;;;3.40;3.20;;;;;;;;;;5077689;28;20285;-64
2022/08/04 03:09:08;;;;;;;3.20;3.00;;;;;;;;;;5061463;28;20212;-66
2022/08/04 03:11:52;;;;;;;3.40;3.10;;;;;;;;;;5077584;28;20598;-65
2022/08/04 03:14:34;;;;;;;3.22;3.03;;;;;;;;;;5077967;28;20227;-66
2022/08/04 03:17:08;;;;;;;3.28;3.03;;;;;;;;;;5023887;28;20276;-65
2022/08/04 03:19:56;;;;;;;3.30;3.10;;;;;;;;;;5077193;28;20265;-65
2022/08/04 03:22:42;;;;;;;3.28;2.97;;;;;;;;;;5036059;28;20212;-65
2022/08/04 03:25:33;;;;;;;3.00;2.80;;;;;;;;;;5077559;28;20200;-65
2022/08/04 03:28:14;;;;;;;3.10;2.90;;;;;;;;;;5052359;28;20212;-66
2022/08/04 03:30:48;;;;;;;3.40;3.10;;;;;;;;;;5076812;28;20650;-65
2022/08/04 03:33:25;;;;;;;3.20;3.00;;;;;;;;;;5077382;28;20269;-65
2022/08/04 03:36:01;;;;;;;2.90;2.70;;;;;;;;;;5076324;28;20293;-65
2022/08/04 03:38:44;;;;;;;3.15;2.92;;;;;;;;;;5077265;28;20667;-64
2022/08/04 03:41:22;;;;;;;3.05;2.85;;;;;;;;;;5076676;28;20265;-65
2022/08/04 03:44:18;;;;;;;3.22;3.03;;;;;;;;;;5076615;28;20215;-65
2022/08/04 03:46:55;;;;;;;3.38;3.10;;;;;;;;;;5076873;28;20254;-65
2022/08/04 03:49:44;;;;;;;3.40;3.10;;;;;;;;;;5076384;28;20273;-66
2022/08/04 03:55:19;;;;;;;3.22;3.00;;;;;;;;;;5076009;28;20259;-66
2022/08/04 03:58:06;;;;;;;3.50;3.30;;;;;;;;;;5076513;28;20223;-65
2022/08/04 04:00:40;;;;;;;3.20;3.00;;;;;;;;;;5076498;28;20212;-65
2022/08/04 04:03:23;;;;;;;3.40;3.20;;;;;;;;;;5076226;28;20572;-66
2022/08/04 04:06:04;;;;;;;3.33;3.03;;;;;;;;;;5076427;28;20240;-65
2022/08/04 04:08:49;;;;;;;3.40;3.20;;;;;;;;;;5077245;28;20204;-65
2022/08/04 04:11:27;;;;;;;3.40;3.20;;;;;;;;;;5040290;28;20215;-65
2022/08/04 04:14:15;;;;;;;3.08;2.88;;;;;;;;;;5079738;28;20211;-65
2022/08/04 04:16:50;;;;;;;3.60;3.30;;;;;;;;;;5073784;28;20204;-65
2022/08/04 04:19:37;;;;;;;3.60;3.40;;;;;;;;;;5079857;28;20219;-64
2022/08/04 04:22:09;;;;;;;3.53;3.22;;;;;;;;;;5079707;28;20204;-65
2022/08/04 04:24:55;;;;;;;3.28;3.05;;;;;;;;;;5079423;28;20209;-64
2022/08/04 04:27:29;;;;;;;3.53;3.22;;;;;;;;;;5079810;28;20458;-64
2022/08/04 04:30:06;;;;;;;3.33;3.03;;;;;;;;;;5079517;28;20496;-65
2022/08/04 04:32:45;;;;;;;3.50;3.25;;;;;;;;;;5079763;28;20215;-65
2022/08/04 04:35:20;;;;;;;3.47;3.25;;;;;;;;;;5079866;28;20258;-65
2022/08/04 04:37:57;;;;;;;3.30;3.10;;;;;;;;;;5079573;28;20503;-65
2022/08/04 04:40:32;;;;;;;3.50;3.30;;;;;;;;;;5079426;28;20204;-65
2022/08/04 04:43:14;;;;;;;3.53;3.33;;;;;;;;;;5079154;28;20277;-65
2022/08/04 04:45:46;;;;;;;3.40;3.20;;;;;;;;;;5079039;28;20201;-65
2022/08/04 04:48:17;;;;;;;3.28;3.08;;;;;;;;;;5078679;28;20200;-65
2022/08/04 04:50:52;;;;;;;3.38;3.17;;;;;;;;;;5059172;28;20213;-65
2022/08/04 04:53:24;;;;;;;3.35;3.15;;;;;;;;;;5058321;28;20270;-65
2022/08/04 04:55:54;;;;;;;3.85;3.55;;;;;;;;;;5058950;28;20267;-65
2022/08/04 04:58:23;;;;;;;3.40;3.20;;;;;;;;;;5059286;28;20241;-65
2022/08/04 05:01:15;;;;;;;3.30;3.10;;;;;;;;;;5058843;28;20271;-65
2022/08/04 05:03:49;;;;;;;3.47;3.28;;;;;;;;;;5058684;28;20585;-65
2022/08/04 05:06:30;;;;;;;3.47;3.17;;;;;;;;;;5058599;28;20197;-65
2022/08/04 05:09:06;;;;;;;3.30;3.10;;;;;;;;;;5058481;28;20212;-65
2022/08/04 05:11:52;;;;;;;3.58;3.38;;;;;;;;;;5058690;28;20273;-64
2022/08/04 05:14:22;;;;;;;3.35;3.15;;;;;;;;;;5058231;28;20267;-65
2022/08/04 05:16:54;;;;;;;3.33;3.13;;;;;;;;;;5058803;28;20213;-65
2022/08/04 05:19:26;;;;;;;3.63;3.40;;;;;;;;;;5057871;28;20205;-66
2022/08/04 05:21:58;;;;;;;3.50;3.30;;;;;;;;;;5057985;28;20216;-65
2022/08/04 05:24:26;;;;;;;3.78;3.47;;;;;;;;;;5057354;28;20306;-65
2022/08/04 05:26:55;;;;;;;3.72;3.42;;;;;;;;;;5057164;28;20201;-65
2022/08/04 05:29:26;;;;;;;3.55;3.30;;;;;;;;;;5057352;28;20713;-65
2022/08/04 05:31:55;;;;;;;3.65;3.40;;;;;;;;;;5057004;28;20236;-65
2022/08/04 05:34:25;;;;;;;3.78;3.47;;;;;;;;;;5057646;28;20205;-65
2022/08/04 05:36:56;;;;;;;3.45;3.25;;;;;;;;;;5057191;28;20247;-65
2022/08/04 05:39:25;;;;;;;3.13;2.92;;;;;;;;;;5057891;28;20213;-65
2022/08/04 05:41:53;;;;;;;3.45;3.25;;;;;;;;;;5056693;28;20668;-65
2022/08/04 05:44:22;;;;;;;3.55;3.35;;;;;;;;;;5056873;28;20213;-64
2022/08/04 05:46:51;;;;;;;3.30;3.10;;;;;;;;;;5057021;28;20213;-64
2022/08/04 05:49:20;;;;;;;3.25;3.05;;;;;;;;;;5065896;28;20211;-66
2022/08/04 05:51:49;;;;;;;3.40;3.20;;;;;;;;;;5076967;28;20270;-65
2022/08/04 05:54:17;;;;;;;3.30;3.10;;;;;;;;;;5076519;28;20200;-65
2022/08/04 05:56:45;;;;;;;3.40;3.20;;;;;;;;;;5076902;28;20611;-65
2022/08/04 05:59:13;;;;;;;3.40;3.20;;;;;;;;;;5076918;28;20204;-65
2022/08/04 06:01:41;;;;;;;3.42;3.22;;;;;;;;;;5077127;28;20208;-65
2022/08/04 06:04:09;;;;;;;3.20;3.00;;;;;;;;;;5076678;28;20200;-65
2022/08/04 06:06:38;;;;;;;3.70;3.42;;;;;;;;;;5076391;28;20492;-65
2022/08/04 06:09:06;;;;;;;3.58;3.38;;;;;;;;;;5076690;28;20208;-65
2022/08/04 06:11:35;;;;;;;3.50;3.20;;;;;;;;;;5076693;28;20720;-65
2022/08/04 06:14:05;;;;;;;3.42;3.22;;;;;;;;;;5077038;28;20329;-65
2022/08/04 06:16:35;;;;;;;3.10;2.90;;;;;;;;;;5077236;28;20487;-66
2022/08/04 06:19:05;;;;;;;3.55;3.30;;;;;;;;;;5077059;28;20273;-65
2022/08/04 06:21:33;;;;;;;3.53;3.33;;;;;;;;;;5077353;28;20560;-65
2022/08/04 06:24:01;;;;;;;3.33;3.13;;;;;;;;;;5077063;28;20203;-65
2022/08/04 06:26:33;;;;;;;3.30;3.10;;;;;;;;;;5076495;28;20607;-65
2022/08/04 06:29:01;;;;;;;3.25;3.05;;;;;;;;;;5076121;28;20502;-65
2022/08/04 06:31:45;;;;;;;3.08;2.88;;;;;;;;;;5075565;28;20223;-67
2022/08/04 06:34:13;;;;;;;3.20;3.00;;;;;;;;;;5075375;28;20225;-66
2022/08/04 06:36:41;;;;;;;3.40;3.10;;;;;;;;;;5075874;28;20608;-65
2022/08/04 06:39:10;;;;;;;3.03;2.83;;;;;;;;;;5076337;28;20200;-65
2022/08/04 06:41:39;;;;;;;3.58;3.30;;;;;;;;;;5075959;28;20200;-65
2022/08/04 06:44:08;;;;;;;2.85;2.75;;;;;;;;;;5076390;28;20204;-67
2022/08/04 06:46:38;;;;;;;3.10;2.90;;;;;;;;;;5075690;28;20204;-67
2022/08/04 06:49:05;;;;;;;3.70;3.40;;;;;;;;;;5075308;28;20604;-67
2022/08/04 06:51:34;;;;;;;3.35;3.10;;;;;;;;;;5075433;28;20204;-67
2022/08/04 06:54:01;;;;;;;3.60;3.30;;;;;;;;;;5074861;28;20200;-65
2022/08/04 06:56:30;;;;;;;3.33;3.13;;;;;;;;;;5076551;28;20297;-64
2022/08/04 06:59:00;;;;;;;3.28;2.97;;;;;;;;;;5075637;28;20204;-65
2022/08/04 07:01:28;;;;;;;5.10;3.15;;;;;;;;;;5074806;28;20204;-65
2022/08/04 07:03:55;;;;;;;4.18;3.42;;;;;;;;;;5075311;28;20658;-64
2022/08/04 07:06:24;;;;;;;3.10;2.90;;;;;;;;;;5075699;28;20208;-64
2022/08/04 07:08:52;;;;;;;3.35;3.00;;;;;;;;;;5075469;28;20211;-64
2022/08/04 07:11:20;;;;;;;3.70;3.40;;;;;;;;;;5073935;28;20216;-65
2022/08/04 07:13:48;;;;;;;3.10;2.90;;;;;;;;;;5074840;28;20299;-65
2022/08/04 07:16:18;;;;;;;3.40;3.10;;;;;;;;;;5074614;28;20323;-64
2022/08/04 07:18:46;;;;;;;3.60;3.30;;;;;;;;;;5074517;28;20268;-64
2022/08/04 07:21:18;;;;;;;3.70;3.25;;;;;;;;;;5074834;28;20204;-65
2022/08/04 07:23:47;;;;;;;3.50;3.20;;;;;;;;;;5074970;28;20200;-65
2022/08/04 07:26:17;;;;;;;4.20;3.50;;;;;;;;;;5075251;28;20210;-64
2022/08/04 07:28:45;;;;;;;3.10;2.90;;;;;;;;;;5074159;28;20298;-65
2022/08/04 07:31:15;;;;;;;3.30;3.10;;;;;;;;;;5074872;28;20196;-65
2022/08/04 07:33:44;;;;;;;2.95;2.75;;;;;;;;;;5074388;28;20210;-65
2022/08/04 07:36:13;;;;;;;3.10;2.88;;;;;;;;;;5075131;28;20261;-64
2022/08/04 07:38:41;;;;;;;3.10;2.90;;;;;;;;;;5074150;28;20287;-64
2022/08/04 07:41:09;;;;;;;3.70;3.00;;;;;;;;;;5074731;28;20204;-64
2022/08/04 07:43:37;;;;;;;3.55;3.30;;;;;;;;;;5077429;28;20234;-65
2022/08/04 07:46:05;;;;;;;2.95;2.75;;;;;;;;;;5078417;28;20286;-64
2022/08/04 07:48:32;;;;;;;3.20;2.90;;;;;;;;;;5078981;28;20484;-64
2022/08/04 07:51:02;;;;;;;3.00;2.80;;;;;;;;;;5078884;28;20204;-64
2022/08/04 07:53:29;;;;;;;3.33;3.03;;;;;;;;;;5079070;28;20208;-64
2022/08/04 07:55:57;;;;;;;3.13;2.92;;;;;;;;;;5077770;28;20293;-64
2022/08/04 07:58:26;;;;;;;3.00;2.80;;;;;;;;;;5078839;28;20535;-65
2022/08/04 08:00:54;;;;;;;2.90;2.70;;;;;;;;;;5078854;28;20538;-65
2022/08/04 08:03:22;;;;;;;2.95;2.75;;;;;;;;;;5078525;28;20291;-65
2022/08/04 08:05:50;;;;;;;2.58;2.40;;;;;;;;;;5078147;28;20261;-64
2022/08/04 08:08:21;;;;;;;3.00;2.80;;;;;;;;;;5077040;28;20209;-66
2022/08/04 08:10:48;;;;;;;2.92;2.70;;;;;;;;;;5078135;28;20208;-64
2022/08/04 08:13:16;;;;;;;2.95;2.75;;;;;;;;;;5078041;28;20266;-64
2022/08/04 08:15:45;;;;;;;2.75;2.55;;;;;;;;;;5077413;28;20234;-64
2022/08/04 08:18:12;;;;;;;2.80;2.60;;;;;;;;;;5077410;28;20235;-65
2022/08/04 08:20:39;;;;;;;2.95;2.75;;;;;;;;;;5077485;28;20270;-65
2022/08/04 08:23:08;;;;;;;2.80;2.60;;;;;;;;;;5078411;28;20204;-66
2022/08/04 08:25:37;;;;;;;2.60;2.40;;;;;;;;;;5078174;28;20715;-65
2022/08/04 08:28:05;;;;;;;2.45;2.28;;;;;;;;;;5077977;28;20265;-65
2022/08/04 08:30:33;;;;;;;3.10;2.70;;;;;;;;;;5077601;28;20572;-65
2022/08/04 08:33:05;;;;;;;3.05;2.70;;;;;;;;;;5077314;28;20197;-65
2022/08/04 08:35:35;;;;;;;2.50;2.30;;;;;;;;;;5077180;28;20583;-65
2022/08/04 08:38:06;;;;;;;2.83;2.50;;;;;;;;;;5076978;28;20224;-65
2022/08/04 08:40:36;;;;;;;2.50;2.30;;;;;;;;;;5077367;28;20265;-65
2022/08/04 08:43:22;;;;;;;2.67;2.47;;;;;;;;;;5076429;28;20215;-64
2022/08/04 08:45:58;;;;;;;3.00;2.70;;;;;;;;;;5076424;28;20200;-65
2022/08/04 08:48:42;;;;;;;2.30;2.10;;;;;;;;;;5076069;28;20210;-64
2022/08/04 08:51:27;;;;;;;2.65;2.45;;;;;;;;;;5077428;28;20207;-66
2022/08/04 08:54:09;;;;;;;2.28;2.17;;;;;;;;;;5076449;28;20212;-64
2022/08/04 08:56:40;;;;;;;2.53;2.30;;;;;;;;;;5077040;28;20825;-64
2022/08/04 08:59:17;;;;;;;2.58;2.38;;;;;;;;;;5077430;28;20519;-65
2022/08/04 09:01:59;;;;;;;2.25;2.15;;;;;;;;;;5076036;28;20304;-64
2022/08/04 09:04:34;;;;;;;2.70;2.50;;;;;;;;;;5076146;28;20204;-64
2022/08/04 09:07:11;;;;;;;2.67;2.50;;;;;;;;;;5076524;28;20325;-65
2022/08/04 09:09:50;;;;;;;2.40;2.30;;;;;;;;;;5076698;28;20257;-65
2022/08/04 09:12:22;;;;;;;2.50;2.25;;;;;;;;;;5075905;28;20227;-65
2022/08/04 09:14:52;;;;;;;2.20;2.10;;;;;;;;;;5076679;28;20208;-65
2022/08/04 09:17:23;;;;;;;2.58;2.38;;;;;;;;;;5076761;28;20220;-65
2022/08/04 09:19:54;;;;;;;2.55;2.40;;;;;;;;;;5077158;28;20205;-65
2022/08/04 09:22:26;;;;;;;2.50;2.30;;;;;;;;;;5075883;28;20226;-65
2022/08/04 09:25:00;;;;;;;2.30;2.20;;;;;;;;;;5076454;28;20212;-65
2022/08/04 09:27:31;;;;;;;2.50;2.30;;;;;;;;;;5076563;28;20204;-66
2022/08/04 09:30:07;;;;;;;2.67;2.47;;;;;;;;;;5075206;28;20212;-65
2022/08/04 09:32:37;;;;;;;2.50;2.30;;;;;;;;;;5075751;28;20200;-64
2022/08/04 09:35:11;;;;;;;2.25;2.13;;;;;;;;;;5075469;28;20543;-65
2022/08/04 09:37:41;;;;;;;2.25;2.15;;;;;;;;;;5075329;28;20228;-65
2022/08/04 09:40:12;;;;;;;2.20;2.10;;;;;;;;;;5075639;28;20211;-64
2022/08/04 09:42:48;;;;;;;2.40;2.20;;;;;;;;;;5074832;28;20200;-65
2022/08/04 09:45:20;;;;;;;2.35;2.25;;;;;;;;;;5074206;28;20314;-65
2022/08/04 09:47:49;;;;;;;2.40;2.28;;;;;;;;;;5074619;28;20265;-65
2022/08/04 09:50:27;;;;;;;2.47;2.10;;;;;;;;;;5073937;28;20262;-65
2022/08/04 09:52:57;;;;;;;2.28;2.17;;;;;;;;;;5074505;28;20199;-65
2022/08/04 09:55:32;;;;;;;2.15;2.05;;;;;;;;;;5075240;28;20215;-65
2022/08/04 09:58:06;;;;;;;2.40;2.30;;;;;;;;;;5074679;28;20654;-64
2022/08/04 10:00:40;;;;;;;2.30;2.20;;;;;;;;;;5074757;28;20596;-65
2022/08/04 10:03:10;;;;;;;2.40;2.20;;;;;;;;;;5074623;28;20200;-64
2022/08/04 10:05:43;;;;;;;2.40;2.22;;;;;;;;;;5074555;28;20212;-64
2022/08/04 10:08:19;;;;;;;2.33;2.17;;;;;;;;;;5075378;28;20584;-65
2022/08/04 10:10:52;;;;;;;2.65;2.45;;;;;;;;;;5074813;28;20211;-65
2022/08/04 10:13:26;;;;;;;2.08;1.88;;;;;;;;;;5074285;28;20299;-65
2022/08/04 10:16:06;;;;;;;2.40;2.30;;;;;;;;;;5075062;28;20203;-65
2022/08/04 10:18:50;;;;;;;2.50;2.30;;;;;;;;;;5075107;28;20196;-65
2022/08/04 10:21:23;;;;;;;2.40;2.20;;;;;;;;;;5074568;28;20215;-65
2022/08/04 10:24:01;;;;;;;2.38;2.28;;;;;;;;;;5074095;28;20200;-64
2022/08/04 10:26:31;;;;;;;2.33;2.13;;;;;;;;;;5074475;28;20200;-66
2022/08/04 10:29:03;;;;;;;2.30;2.20;;;;;;;;;;5074793;28;20209;-65
2022/08/04 10:31:34;;;;;;;2.20;2.10;;;;;;;;;;5074800;28;20216;-66
2022/08/04 10:34:03;;;;;;;2.30;2.10;;;;;;;;;;5074966;28;20804;-65
2022/08/04 10:36:33;;;;;;;2.30;2.10;;;;;;;;;;5074393;28;20247;-64
2022/08/04 10:39:04;;;;;;;2.60;2.40;;;;;;;;;;5074855;28;20266;-64
2022/08/04 10:41:34;;;;;;;2.35;2.25;;;;;;;;;;5074536;28;20204;-64
2022/08/04 10:44:06;;;;;;;2.10;2.00;;;;;;;;;;5074853;28;20306;-64
2022/08/04 10:46:36;;;;;;;2.08;1.98;;;;;;;;;;5074502;28;20250;-65
2022/08/04 10:49:07;;;;;;;2.47;2.30;;;;;;;;;;5074167;28;20197;-64
2022/08/04 10:51:35;;;;;;;2.20;2.10;;;;;;;;;;5074294;28;20746;-65
2022/08/04 10:54:06;;;;;;;2.40;2.20;;;;;;;;;;5074725;28;20206;-65
2022/08/04 10:56:36;;;;;;;2.40;2.30;;;;;;;;;;5074376;28;20236;-65
2022/08/04 10:59:04;;;;;;;2.30;2.20;;;;;;;;;;5074345;28;20204;-66
2022/08/04 11:01:34;;;;;;;2.47;2.38;;;;;;;;;;5074957;28;20212;-65
2022/08/04 11:04:05;;;;;;;2.25;2.15;;;;;;;;;;5073970;28;20603;-65
2022/08/04 11:06:33;;;;;;;2.47;2.38;;;;;;;;;;5073830;28;20341;-65
2022/08/04 11:09:02;;;;;;;2.28;2.17;;;;;;;;;;5073950;28;20266;-64
2022/08/04 11:11:32;;;;;;;2.10;2.00;;;;;;;;;;5073341;28;20270;-64
2022/08/04 11:14:02;;;;;;;2.40;2.30;;;;;;;;;;5073928;28;20861;-65
2022/08/04 11:16:32;;;;;;;2.13;2.03;;;;;;;;;;5072513;28;20236;-64
2022/08/04 11:19:07;;;;;;;2.08;1.98;;;;;;;;;;5073401;28;20204;-64
2022/08/04 11:21:40;;;;;;;2.22;2.13;;;;;;;;;;5073793;28;20204;-64
2022/08/04 11:24:12;;;;;;;2.60;2.50;;;;;;;;;;5074215;28;20204;-65
2022/08/04 11:26:44;;;;;;;2.17;2.00;;;;;;;;;;5073754;28;20483;-65
2022/08/04 11:29:17;;;;;;;2.35;2.25;;;;;;;;;;5074103;28;20204;-65
2022/08/04 11:31:46;;;;;;;2.50;2.40;;;;;;;;;;5074444;28;20290;-64
2022/08/04 11:34:19;;;;;;;2.28;2.17;;;;;;;;;;5074562;28;20212;-64
2022/08/04 11:36:50;;;;;;;2.28;2.17;;;;;;;;;;5073658;28;20888;-65
2022/08/04 11:39:24;;;;;;;2.63;2.50;;;;;;;;;;5074461;28;20204;-65
2022/08/04 11:41:53;;;;;;;2.50;2.40;;;;;;;;;;5073668;28;20196;-65
2022/08/04 11:44:24;;;;;;;2.13;2.03;;;;;;;;;;5074161;28;20204;-65
2022/08/04 11:46:52;;;;;;;2.78;2.58;;;;;;;;;;5074038;28;20722;-65
2022/08/04 11:49:27;;;;;;;2.17;2.08;;;;;;;;;;5073958;28;20205;-64
2022/08/04 11:51:56;;;;;;;2.38;2.28;;;;;;;;;;5074091;28;20207;-65
2022/08/04 11:54:23;;;;;;;2.28;2.17;;;;;;;;;;5073484;28;20210;-65
2022/08/04 11:56:51;;;;;;;2.15;2.05;;;;;;;;;;5073630;28;20232;-65
2022/08/04 11:59:21;;;;;;;2.47;2.30;;;;;;;;;;5073196;28;20200;-65
2022/08/04 12:01:58;;;;;;;2.28;2.17;;;;;;;;;;5073950;28;20415;-65
2022/08/04 12:04:29;;;;;;;2.35;2.25;;;;;;;;;;5074085;28;20196;-65
2022/08/04 12:07:03;;;;;;;2.50;2.30;;;;;;;;;;5074333;28;20200;-65
2022/08/04 12:09:36;;;;;;;2.10;2.00;;;;;;;;;;5075207;28;20204;-65
2022/08/04 12:12:10;;;;;;;2.42;2.30;;;;;;;;;;5073751;28;20212;-65
2022/08/04 12:14:43;;;;;;;2.42;2.33;;;;;;;;;;5074295;28;20216;-65
2022/08/04 12:17:11;;;;;;;2.75;2.55;;;;;;;;;;5073144;28;20278;-65
2022/08/04 12:19:41;;;;;;;2.47;2.28;;;;;;;;;;5073426;28;20204;-64
2022/08/04 12:22:12;;;;;;;2.55;2.35;;;;;;;;;;5074217;28;20655;-64
2022/08/04 12:24:42;;;;;;;2.20;2.10;;;;;;;;;;5074137;28;20242;-66
2022/08/04 12:27:13;;;;;;;2.53;2.33;;;;;;;;;;5074481;28;20581;-64
2022/08/04 12:29:42;;;;;;;2.35;2.25;;;;;;;;;;5074010;28;20205;-66
2022/08/04 12:32:18;;;;;;;2.33;2.22;;;;;;;;;;5077448;28;20315;-64
2022/08/04 12:34:50;;;;;;;2.35;2.25;;;;;;;;;;5077939;28;20214;-65
2022/08/04 12:37:24;;;;;;;2.17;2.08;;;;;;;;;;5077484;28;20236;-64
2022/08/04 12:39:53;;;;;;;2.35;2.20;;;;;;;;;;5077903;28;20205;-65
2022/08/04 12:42:23;;;;;;;2.55;2.45;;;;;;;;;;5077826;28;20285;-65
2022/08/04 12:44:53;;;;;;;2.40;2.30;;;;;;;;;;5076410;28;20608;-65
2022/08/04 12:47:24;;;;;;;2.53;2.33;;;;;;;;;;5077612;28;20200;-65
2022/08/04 12:49:51;;;;;;;2.58;2.38;;;;;;;;;;5077080;28;20254;-65
2022/08/04 12:52:21;;;;;;;2.58;2.47;;;;;;;;;;5076882;28;20285;-66
2022/08/04 12:54:52;;;;;;;2.40;2.30;;;;;;;;;;5077255;28;20277;-65
2022/08/04 12:57:21;;;;;;;2.30;2.20;;;;;;;;;;5075735;28;20532;-65
2022/08/04 12:59:48;;;;;;;2.72;2.35;;;;;;;;;;5076266;28;20596;-65
2022/08/04 13:02:18;;;;;;;2.40;2.30;;;;;;;;;;5076315;28;20354;-65
2022/08/04 13:04:46;;;;;;;2.40;2.30;;;;;;;;;;5076428;28;20258;-65
2022/08/04 13:07:16;;;;;;;2.60;2.50;;;;;;;;;;5077278;28;20201;-64
2022/08/04 13:09:45;;;;;;;2.60;2.47;;;;;;;;;;5076638;28;20212;-65
2022/08/04 13:12:14;;;;;;;2.58;2.47;;;;;;;;;;5076602;28;20618;-65
2022/08/04 13:14:44;;;;;;;2.58;2.47;;;;;;;;;;5076369;28;20254;-64
2022/08/04 13:17:11;;;;;;;2.55;2.45;;;;;;;;;;5075692;28;20344;-65
2022/08/04 13:19:39;;;;;;;2.50;2.40;;;;;;;;;;5075988;28;20212;-65
2022/08/04 13:22:06;;;;;;;2.80;2.60;;;;;;;;;;5076016;28;20243;-65
2022/08/04 13:24:35;;;;;;;2.60;2.40;;;;;;;;;;5076525;28;20599;-65
2022/08/04 13:27:07;;;;;;;2.75;2.55;;;;;;;;;;5076327;28;20250;-66
2022/08/04 13:29:35;;;;;;;2.30;2.20;;;;;;;;;;5076371;28;20611;-64
2022/08/04 13:32:03;;;;;;;2.33;2.13;;;;;;;;;;5076284;28;20511;-65
2022/08/04 13:34:31;;;;;;;2.67;2.50;;;;;;;;;;5075700;28;20275;-65
2022/08/04 13:37:00;;;;;;;2.65;2.45;;;;;;;;;;5076568;28;20302;-65
2022/08/04 13:39:27;;;;;;;2.70;2.50;;;;;;;;;;5076228;28;20200;-65
2022/08/04 13:41:57;;;;;;;2.75;2.55;;;;;;;;;;5076340;28;20274;-65
2022/08/04 13:44:27;;;;;;;2.65;2.45;;;;;;;;;;5076082;28;20204;-65
2022/08/04 13:46:56;;;;;;;2.90;2.70;;;;;;;;;;5076660;28;20265;-66
2022/08/04 13:49:24;;;;;;;2.78;2.60;;;;;;;;;;5075977;28;20259;-65
2022/08/04 13:51:53;;;;;;;2.65;2.55;;;;;;;;;;5076027;28;20205;-65
2022/08/04 13:54:20;;;;;;;2.97;2.78;;;;;;;;;;5076309;28;20204;-65
2022/08/04 13:56:50;;;;;;;2.72;2.63;;;;;;;;;;5075113;28;20506;-65
2022/08/04 13:59:18;;;;;;;2.45;2.35;;;;;;;;;;5075173;28;20212;-65
2022/08/04 14:01:56;;;;;;;2.80;2.60;;;;;;;;;;5075166;28;20273;-65
2022/08/04 14:04:25;;;;;;;2.50;2.40;;;;;;;;;;5075122;28;20291;-66
2022/08/04 14:06:55;;;;;;;3.00;2.80;;;;;;;;;;5074710;28;20204;-65
2022/08/04 14:09:23;;;;;;;2.92;2.72;;;;;;;;;;5075414;28;20205;-65
2022/08/04 14:11:52;;;;;;;2.60;2.50;;;;;;;;;;5075135;28;20884;-65
2022/08/04 14:14:22;;;;;;;2.40;2.20;;;;;;;;;;5074932;28;20281;-65
2022/08/04 14:16:58;;;;;;;2.75;2.55;;;;;;;;;;5075198;28;20269;-65
2022/08/04 14:19:26;;;;;;;2.70;2.60;;;;;;;;;;5074605;28;20212;-65
2022/08/04 14:21:53;;;;;;;2.97;2.78;;;;;;;;;;5075467;28;20212;-66
2022/08/04 14:24:24;;;;;;;2.72;2.53;;;;;;;;;;5075641;28;20223;-65
2022/08/04 14:26:51;;;;;;;2.42;2.33;;;;;;;;;;5074612;28;20212;-65
2022/08/04 14:29:19;;;;;;;2.95;2.75;;;;;;;;;;5075123;28;20208;-65
2022/08/04 14:31:49;;;;;;;2.75;2.60;;;;;;;;;;5075116;28;20200;-65
2022/08/04 14:34:27;;;;;;;2.47;2.38;;;;;;;;;;5074347;28;20473;-65
2022/08/04 14:36:54;;;;;;;2.80;2.70;;;;;;;;;;5074823;28;20327;-65
2022/08/04 14:39:37;;;;;;;2.47;2.38;;;;;;;;;;5074188;28;20224;-65
2022/08/04 14:42:04;;;;;;;2.72;2.53;;;;;;;;;;5075201;28;20290;-65
2022/08/04 14:44:32;;;;;;;3.08;2.88;;;;;;;;;;5075595;28;20230;-65
2022/08/04 14:47:01;;;;;;;2.70;2.60;;;;;;;;;;5074748;28;20532;-65
2022/08/04 14:49:29;;;;;;;2.65;2.55;;;;;;;;;;5074694;28;20220;-65
2022/08/04 14:51:58;;;;;;;3.00;2.80;;;;;;;;;;5074721;28;20466;-65
2022/08/04 14:54:29;;;;;;;2.65;2.45;;;;;;;;;;5075505;28;20204;-65
2022/08/04 14:56:58;;;;;;;2.42;2.33;;;;;;;;;;5075428;28;20242;-65
2022/08/04 14:59:26;;;;;;;3.00;2.80;;;;;;;;;;5075309;28;20224;-65
2022/08/04 15:01:54;;;;;;;2.83;2.72;;;;;;;;;;5074255;28;20205;-65
2022/08/04 15:04:23;;;;;;;2.90;2.70;;;;;;;;;;5075153;28;20554;-65
2022/08/04 15:06:52;;;;;;;2.80;2.60;;;;;;;;;;5073959;28;20244;-65
2022/08/04 15:09:21;;;;;;;2.80;2.60;;;;;;;;;;5074203;28;20215;-66
2022/08/04 15:11:49;;;;;;;2.80;2.70;;;;;;;;;;5073112;28;20200;-65
2022/08/04 15:14:16;;;;;;;2.60;2.50;;;;;;;;;;5073999;28;20717;-65